createdAt,value
2022-11-15T00:00:59.329Z,4.77
2022-11-15T00:03:44.384Z,4.60
2022-11-15T00:06:29.291Z,5.10
2022-11-15T00:09:14.136Z,5.60
2022-11-15T00:11:59.038Z,5.37
2022-11-15T00:14:43.832Z,5.43
2022-11-15T00:17:28.837Z,5.40
2022-11-15T00:20:14.154Z,5.37
2022-11-15T00:22:59.247Z,5.97
2022-11-15T00:25:44.188Z,6.40
2022-11-15T00:28:28.924Z,5.90
2022-11-15T00:31:15.248Z,5.70
2022-11-15T00:34:00.056Z,6.20
2022-11-15T00:36:45.051Z,6.10
2022-11-15T00:39:30.123Z,6.57
2022-11-15T00:42:15.071Z,6.07
2022-11-15T00:45:00.020Z,5.23
2022-11-15T00:47:46.587Z,6.27
2022-11-15T00:50:31.708Z,5.73
2022-11-15T00:53:17.476Z,5.33
2022-11-15T00:56:02.650Z,5.80
2022-11-15T00:58:47.485Z,6.07
2022-11-15T01:01:32.294Z,5.03
2022-11-15T01:04:17.241Z,5.13
2022-11-15T01:07:02.133Z,5.13
2022-11-15T01:09:47.008Z,4.90
2022-11-15T01:12:32.908Z,4.80
2022-11-15T01:15:17.895Z,4.73
2022-11-15T01:18:03.114Z,4.93
2022-11-15T01:20:47.900Z,5.30
2022-11-15T01:23:32.898Z,4.83
2022-11-15T01:26:18.188Z,4.70
2022-11-15T01:29:04.093Z,5.17
2022-11-15T01:31:49.075Z,4.50
2022-11-15T01:34:33.875Z,4.37
2022-11-15T01:37:18.721Z,4.10
2022-11-15T01:40:04.473Z,4.77
2022-11-15T01:42:49.604Z,4.20
2022-11-15T01:45:34.547Z,4.30
2022-11-15T01:48:19.658Z,4.50
2022-11-15T01:51:10.190Z,4.43
2022-11-15T01:53:59.122Z,4.10
2022-11-15T01:56:50.264Z,4.30
2022-11-15T01:59:35.860Z,3.80
2022-11-15T02:02:21.386Z,4.00
2022-11-15T02:05:06.918Z,3.83
2022-11-15T02:07:52.523Z,4.00
2022-11-15T02:10:37.730Z,3.63
2022-11-15T02:13:23.271Z,4.07
2022-11-15T02:16:48.825Z,3.53
2022-11-15T02:19:33.907Z,3.47
2022-11-15T02:22:30.808Z,3.67
2022-11-15T02:25:40.600Z,3.20
2022-11-15T02:28:44.138Z,3.50
2022-11-15T02:31:46.283Z,3.10
2022-11-15T02:35:18.638Z,2.97
2022-11-15T02:38:18.163Z,3.73
2022-11-15T02:41:08.413Z,3.20
2022-11-15T02:44:08.929Z,3.10
2022-11-15T02:47:16.094Z,3.10
2022-11-15T02:50:10.893Z,3.03
2022-11-15T02:52:56.743Z,3.30
2022-11-15T02:55:48.925Z,3.53
2022-11-15T02:59:00.350Z,3.20
2022-11-15T03:02:07.323Z,3.20
2022-11-15T03:04:59.447Z,3.43
2022-11-15T03:08:12.896Z,3.40
2022-11-15T03:11:10.063Z,3.20
2022-11-15T03:14:02.844Z,3.50
2022-11-15T03:17:24.210Z,3.20
2022-11-15T03:20:12.601Z,3.97
2022-11-15T03:23:11.874Z,3.90
2022-11-15T03:25:59.265Z,3.40
2022-11-15T03:29:07.515Z,3.40
2022-11-15T03:32:01.667Z,3.90
2022-11-15T03:35:13.853Z,3.80
2022-11-15T03:38:08.435Z,3.50
2022-11-15T03:40:57.791Z,3.63
2022-11-15T03:43:53.993Z,3.73
2022-11-15T03:46:50.544Z,3.47
2022-11-15T03:49:39.518Z,3.33
2022-11-15T03:52:24.934Z,3.80
2022-11-15T03:55:15.955Z,3.87
2022-11-15T03:58:02.240Z,3.87
2022-11-15T04:00:47.493Z,3.50
2022-11-15T04:03:32.979Z,3.40
2022-11-15T04:06:18.058Z,3.50
2022-11-15T04:09:03.323Z,3.47
2022-11-15T04:11:48.242Z,3.80
2022-11-15T04:14:33.137Z,3.13
2022-11-15T04:17:17.902Z,3.57
2022-11-15T04:20:24.216Z,3.37
2022-11-15T04:23:36.491Z,3.27
2022-11-15T04:26:23.969Z,3.47
2022-11-15T04:29:27.513Z,3.57
2022-11-15T04:32:12.728Z,3.53
2022-11-15T04:34:57.797Z,3.40
2022-11-15T04:37:47.923Z,3.30
2022-11-15T04:40:34.441Z,3.17
2022-11-15T04:43:19.628Z,3.00
2022-11-15T04:46:04.625Z,3.10
2022-11-15T04:48:52.061Z,3.17
2022-11-15T04:51:40.809Z,3.30
2022-11-15T04:54:25.740Z,3.10
2022-11-15T04:57:10.704Z,3.90
2022-11-15T04:59:55.847Z,3.63
2022-11-15T05:02:59.547Z,3.43
2022-11-15T05:05:44.667Z,3.27
2022-11-15T05:08:29.588Z,3.13
2022-11-15T05:11:14.493Z,2.90
2022-11-15T05:13:59.431Z,2.90
2022-11-15T05:16:44.264Z,2.93
2022-11-15T05:19:29.176Z,3.10
2022-11-15T05:22:13.978Z,2.80
2022-11-15T05:24:58.906Z,2.80
2022-11-15T05:27:43.745Z,2.80
2022-11-15T05:30:28.531Z,2.70
2022-11-15T05:33:13.550Z,2.83
2022-11-15T05:36:10.807Z,2.90
2022-11-15T05:38:55.974Z,3.10
2022-11-15T05:41:47.867Z,2.67
2022-11-15T05:44:33.346Z,3.00
2022-11-15T05:47:24.217Z,3.00
2022-11-15T05:50:13.612Z,3.00
2022-11-15T05:53:03.730Z,2.77
2022-11-15T05:55:50.787Z,2.57
2022-11-15T05:58:37.396Z,2.70
2022-11-15T06:01:23.161Z,2.70
2022-11-15T06:04:08.181Z,2.80
2022-11-15T06:06:53.132Z,2.77
2022-11-15T06:09:37.958Z,3.80
2022-11-15T06:12:23.111Z,3.50
2022-11-15T06:15:08.818Z,3.50
2022-11-15T06:17:58.380Z,3.40
2022-11-15T06:20:43.375Z,3.70
2022-11-15T06:23:29.339Z,3.97
2022-11-15T06:26:14.759Z,3.60
2022-11-15T06:28:59.861Z,4.27
2022-11-15T06:31:44.892Z,4.30
2022-11-15T06:34:30.010Z,4.00
2022-11-15T06:37:15.068Z,4.10
2022-11-15T06:39:59.916Z,4.57
2022-11-15T06:42:44.805Z,4.70
2022-11-15T06:45:29.845Z,4.53
2022-11-15T06:48:15.081Z,4.73
2022-11-15T06:51:01.864Z,4.10
2022-11-15T06:53:47.374Z,4.20
2022-11-15T06:56:32.442Z,4.60
2022-11-15T06:59:17.354Z,4.43
2022-11-15T07:02:02.439Z,3.90
2022-11-15T07:05:00.424Z,3.63
2022-11-15T07:07:52.618Z,3.60
2022-11-15T07:10:37.836Z,4.00
2022-11-15T07:13:26.509Z,4.10
2022-11-15T07:16:11.994Z,3.80
2022-11-15T07:18:57.131Z,4.07
2022-11-15T07:21:43.299Z,4.83
2022-11-15T07:24:28.440Z,5.13
2022-11-15T07:27:13.925Z,5.00
2022-11-15T07:29:59.312Z,5.10
2022-11-15T07:32:44.471Z,6.77
2022-11-15T07:35:30.922Z,6.73
2022-11-15T07:38:16.905Z,7.80
2022-11-15T07:41:05.709Z,7.23
2022-11-15T07:43:53.954Z,6.87
2022-11-15T07:46:39.064Z,6.70
2022-11-15T07:49:24.001Z,7.10
2022-11-15T07:52:08.986Z,6.90
2022-11-15T07:54:53.940Z,6.97
2022-11-15T07:57:39.019Z,6.70
2022-11-15T08:00:24.248Z,5.80
2022-11-15T08:03:12.184Z,5.43
2022-11-15T08:05:56.989Z,5.70
2022-11-15T08:08:41.874Z,6.30
2022-11-15T08:11:26.794Z,5.80
2022-11-15T08:14:11.954Z,6.33
2022-11-15T08:16:56.721Z,6.57
2022-11-15T08:19:41.528Z,6.43
2022-11-15T08:22:26.528Z,6.37
2022-11-15T08:25:11.615Z,6.10
2022-11-15T08:27:58.027Z,6.17
2022-11-15T08:30:46.300Z,6.43
2022-11-15T08:33:32.801Z,5.87
2022-11-15T08:36:18.375Z,5.97
2022-11-15T08:39:03.794Z,4.97
2022-11-15T08:41:48.899Z,5.43
2022-11-15T08:44:33.939Z,5.00
2022-11-15T08:47:18.846Z,4.70
2022-11-15T08:50:03.789Z,5.00
2022-11-15T08:52:51.805Z,4.20
2022-11-15T08:55:38.061Z,4.80
2022-11-15T08:58:23.000Z,4.70
2022-11-15T09:01:18.718Z,5.00
2022-11-15T09:04:04.902Z,5.27
2022-11-15T09:06:50.161Z,5.70
2022-11-15T09:09:35.095Z,4.87
2022-11-15T09:12:20.185Z,4.73
2022-11-15T09:15:06.506Z,4.37
2022-11-15T09:17:51.387Z,4.30
2022-11-15T09:20:36.980Z,5.60
2022-11-15T09:23:21.882Z,4.80
2022-11-15T09:26:07.865Z,4.57
2022-11-15T09:28:53.098Z,4.80
2022-11-15T09:31:38.029Z,5.17
2022-11-15T09:34:23.217Z,4.83
2022-11-15T09:37:08.336Z,5.30
2022-11-15T09:39:53.400Z,4.60
2022-11-15T09:42:56.547Z,3.80
2022-11-15T09:45:47.435Z,3.17
2022-11-15T09:48:55.147Z,3.57
2022-11-15T09:51:48.340Z,3.37
2022-11-15T09:57:17.972Z,2.80
2022-11-15T10:00:12.239Z,3.10
2022-11-15T10:02:49.867Z,3.43
2022-11-15T10:05:20.468Z,2.90
2022-11-15T10:08:02.141Z,3.23
2022-11-15T10:10:39.245Z,2.80
2022-11-15T10:13:12.912Z,2.60
2022-11-15T10:15:39.567Z,2.30
2022-11-15T10:18:17.394Z,2.60
2022-11-15T10:20:55.241Z,2.30
2022-11-15T10:23:23.324Z,2.40
2022-11-15T10:25:54.114Z,2.00
2022-11-15T10:28:28.482Z,2.20
2022-11-15T10:31:00.136Z,2.37
2022-11-15T10:33:40.308Z,2.27
2022-11-15T10:36:10.121Z,2.63
2022-11-15T10:38:51.784Z,2.43
2022-11-15T10:41:19.811Z,2.53
2022-11-15T10:44:09.717Z,3.30
2022-11-15T10:46:47.479Z,2.83
2022-11-15T10:49:31.304Z,3.40
2022-11-15T10:52:01.397Z,3.10
2022-11-15T10:54:37.049Z,5.83
2022-11-15T10:57:11.897Z,2.10
2022-11-15T10:59:39.581Z,2.10
2022-11-15T11:02:36.199Z,1.90
2022-11-15T11:05:05.344Z,2.53
2022-11-15T11:07:34.191Z,2.00
2022-11-15T11:13:15.622Z,1.40
2022-11-15T11:15:45.912Z,1.57
2022-11-15T11:18:23.391Z,1.60
2022-11-15T11:20:57.951Z,1.43
2022-11-15T11:23:48.752Z,1.70
2022-11-15T11:26:27.249Z,1.17
2022-11-15T11:29:02.786Z,1.33
2022-11-15T11:31:49.040Z,1.30
2022-11-15T11:34:53.121Z,1.33
2022-11-15T11:37:40.738Z,0.97
2022-11-15T11:40:16.825Z,0.83
2022-11-15T11:43:00.417Z,0.80
2022-11-15T11:45:59.186Z,0.90
2022-11-15T11:48:46.629Z,1.10
2022-11-15T11:51:38.621Z,1.20
2022-11-15T11:54:13.519Z,1.13
2022-11-15T11:56:44.173Z,1.10
2022-11-15T11:59:19.306Z,0.77
2022-11-15T12:01:46.246Z,0.77
2022-11-15T12:04:35.111Z,0.90
2022-11-15T12:07:14.804Z,0.70
2022-11-15T12:10:02.892Z,0.80
2022-11-15T12:12:37.611Z,0.60
2022-11-15T12:15:10.123Z,0.80
2022-11-15T12:17:39.521Z,0.80
2022-11-15T12:20:17.417Z,0.70
2022-11-15T12:22:53.054Z,0.50
2022-11-15T12:25:57.133Z,0.70
2022-11-15T12:28:52.893Z,0.70
2022-11-15T12:31:56.591Z,0.60
2022-11-15T12:34:23.154Z,0.70
2022-11-15T12:36:51.520Z,0.93
2022-11-15T12:39:18.752Z,0.97
2022-11-15T12:42:05.136Z,0.77
2022-11-15T12:44:31.622Z,0.70
2022-11-15T12:46:58.012Z,0.77
2022-11-15T12:49:24.411Z,0.60
2022-11-15T12:51:51.842Z,0.73
2022-11-15T12:54:24.409Z,0.87
2022-11-15T12:57:09.203Z,1.00
2022-11-15T13:00:00.245Z,1.10
2022-11-15T13:02:30.576Z,1.00
2022-11-15T13:05:19.209Z,0.97
2022-11-15T13:07:45.662Z,0.70
2022-11-15T13:10:28.105Z,1.00
2022-11-15T13:12:56.480Z,1.10
2022-11-15T13:15:46.765Z,0.70
2022-11-15T13:18:40.151Z,0.90
2022-11-15T13:21:40.477Z,0.80
2022-11-15T13:24:16.855Z,0.73
2022-11-15T13:26:43.989Z,0.80
2022-11-15T13:29:17.715Z,0.73
2022-11-15T13:31:45.650Z,0.60
2022-11-15T13:37:30.793Z,0.70
2022-11-15T13:40:16.761Z,0.80
2022-11-15T13:42:45.876Z,0.77
2022-11-15T13:45:16.684Z,0.73
2022-11-15T13:47:43.543Z,0.90
2022-11-15T13:50:14.697Z,0.80
2022-11-15T13:52:46.532Z,0.70
2022-11-15T13:55:17.057Z,0.60
2022-11-15T13:57:47.312Z,0.60
2022-11-15T14:00:44.181Z,0.60
2022-11-15T14:03:25.472Z,0.80
2022-11-15T14:06:13.264Z,0.60
2022-11-15T14:08:59.401Z,0.60
2022-11-15T14:11:25.973Z,1.03
2022-11-15T14:14:05.609Z,0.60
2022-11-15T14:16:38.131Z,0.60
2022-11-15T14:19:07.149Z,0.63
2022-11-15T14:21:33.847Z,0.53
2022-11-15T14:24:20.825Z,0.80
2022-11-15T14:26:48.276Z,0.70
2022-11-15T14:29:23.768Z,0.90
2022-11-15T14:31:50.813Z,0.80
2022-11-15T14:34:17.257Z,0.87
2022-11-15T14:36:43.744Z,1.00
2022-11-15T14:39:10.195Z,0.70
2022-11-15T14:41:40.557Z,0.70
2022-11-15T14:44:07.689Z,0.70
2022-11-15T14:46:34.150Z,0.70
2022-11-15T14:49:00.721Z,0.80
2022-11-15T14:51:27.241Z,0.80
2022-11-15T14:53:55.075Z,0.80
2022-11-15T14:56:21.603Z,0.70
2022-11-15T14:58:48.097Z,0.70
2022-11-15T15:01:22.070Z,0.73
2022-11-15T15:03:48.848Z,0.70
2022-11-15T15:06:18.242Z,0.60
2022-11-15T15:08:46.959Z,0.80
2022-11-15T15:11:24.974Z,0.73
2022-11-15T15:13:53.300Z,0.70
2022-11-15T15:16:20.334Z,0.80
2022-11-15T15:18:46.803Z,0.87
2022-11-15T15:21:37.220Z,0.97
2022-11-15T15:24:04.663Z,1.00
2022-11-15T15:26:34.619Z,1.07
2022-11-15T15:29:01.460Z,1.00
2022-11-15T15:31:27.964Z,1.10
2022-11-15T15:33:54.454Z,1.07
2022-11-15T15:36:21.013Z,1.60
2022-11-15T15:38:47.773Z,1.40
2022-11-15T15:41:16.377Z,1.10
2022-11-15T15:43:43.681Z,1.60
2022-11-15T15:46:15.581Z,2.40
2022-11-15T15:48:42.280Z,2.07
2022-11-15T15:51:15.379Z,2.17
2022-11-15T15:53:45.192Z,1.70
2022-11-15T15:56:11.735Z,1.20
2022-11-15T15:58:38.255Z,1.50
2022-11-15T16:01:04.978Z,1.27
2022-11-15T16:03:32.131Z,1.23
2022-11-15T16:05:59.213Z,1.00
2022-11-15T16:08:27.572Z,1.10
2022-11-15T16:10:54.170Z,1.03
2022-11-15T16:13:20.721Z,1.20
2022-11-15T16:15:51.904Z,1.53
2022-11-15T16:18:19.129Z,1.20
2022-11-15T16:20:52.891Z,1.63
2022-11-15T16:23:22.432Z,3.63
2022-11-15T16:25:54.120Z,3.10
2022-11-15T16:28:21.872Z,2.97
2022-11-15T16:30:53.840Z,3.20
2022-11-15T16:33:23.022Z,3.40
2022-11-15T16:35:49.514Z,2.53
2022-11-15T16:38:16.693Z,2.30
2022-11-15T16:40:43.468Z,2.00
2022-11-15T16:43:10.612Z,2.00
2022-11-15T16:45:37.463Z,2.07
2022-11-15T16:48:04.716Z,1.87
2022-11-15T16:50:39.776Z,1.80
2022-11-15T16:53:06.426Z,2.50
2022-11-15T16:55:33.040Z,3.57
2022-11-15T16:57:59.602Z,3.70
2022-11-15T17:00:26.401Z,4.50
2022-11-15T17:02:53.214Z,4.43
2022-11-15T17:05:22.101Z,3.70
2022-11-15T17:07:50.492Z,4.30
2022-11-15T17:10:17.259Z,4.67
2022-11-15T17:12:43.969Z,5.40
2022-11-15T17:15:12.955Z,5.03
2022-11-15T17:17:40.329Z,5.73
2022-11-15T17:20:13.823Z,5.50
2022-11-15T17:22:40.269Z,5.77
2022-11-15T17:25:07.135Z,5.40
2022-11-15T17:27:33.691Z,5.60
2022-11-15T17:30:00.203Z,4.97
2022-11-15T17:32:26.667Z,5.57
2022-11-15T17:34:53.191Z,4.93
2022-11-15T17:37:19.676Z,5.20
2022-11-15T17:39:46.130Z,4.90
2022-11-15T17:42:12.615Z,5.03
2022-11-15T17:44:39.103Z,4.13
2022-11-15T17:47:05.631Z,4.27
2022-11-15T17:49:32.235Z,4.17
2022-11-15T17:51:58.697Z,7.00
2022-11-15T17:54:25.150Z,8.33
2022-11-15T17:56:51.645Z,8.30
2022-11-15T17:59:21.597Z,9.33
2022-11-15T18:01:48.315Z,9.63
2022-11-15T18:04:15.322Z,8.63
2022-11-15T18:06:41.771Z,7.43
2022-11-15T18:09:08.500Z,4.63
2022-11-15T18:11:41.353Z,3.47
2022-11-15T18:14:12.574Z,2.87
2022-11-15T18:16:40.208Z,3.13
2022-11-15T18:19:13.244Z,2.80
2022-11-15T18:21:57.156Z,2.60
2022-11-15T18:24:29.585Z,2.20
2022-11-15T18:26:56.883Z,2.83
2022-11-15T18:29:24.722Z,2.50
2022-11-15T18:31:54.983Z,2.87
2022-11-15T18:34:23.613Z,2.37
2022-11-15T18:36:52.388Z,2.80
2022-11-15T18:39:19.371Z,2.83
2022-11-15T18:41:49.203Z,3.23
2022-11-15T18:44:16.357Z,3.07
2022-11-15T18:46:44.881Z,3.63
2022-11-15T18:49:13.219Z,4.80
2022-11-15T18:51:41.660Z,5.27
2022-11-15T18:54:10.672Z,6.27
2022-11-15T18:56:37.788Z,10.27
2022-11-15T18:59:05.142Z,12.70
2022-11-15T19:01:34.550Z,12.07
2022-11-15T19:04:12.257Z,10.97
2022-11-15T19:06:42.058Z,9.70
2022-11-15T19:09:10.668Z,11.03
2022-11-15T19:11:39.865Z,12.07
2022-11-15T19:14:08.972Z,11.23
2022-11-15T19:16:41.103Z,10.10
2022-11-15T19:19:14.779Z,9.50
2022-11-15T19:21:42.109Z,11.10
2022-11-15T19:24:10.255Z,15.13
2022-11-15T19:26:39.581Z,16.77
2022-11-15T19:29:10.135Z,15.77
2022-11-15T19:31:37.861Z,9.67
2022-11-15T19:34:05.921Z,7.30
2022-11-15T19:36:37.234Z,5.77
2022-11-15T19:39:08.298Z,3.83
2022-11-15T19:41:38.798Z,4.33
2022-11-15T19:44:06.401Z,4.10
2022-11-15T19:46:32.997Z,4.23
2022-11-15T19:48:59.652Z,6.27
2022-11-15T19:51:30.183Z,7.70
2022-11-15T19:53:59.152Z,6.50
2022-11-15T19:56:25.884Z,7.23
2022-11-15T19:58:53.927Z,7.97
2022-11-15T20:01:26.142Z,7.07
2022-11-15T20:03:54.645Z,6.50
2022-11-15T20:06:32.574Z,5.70
2022-11-15T20:08:59.281Z,5.47
2022-11-15T20:11:26.113Z,5.30
2022-11-15T20:13:57.334Z,4.80
2022-11-15T20:16:24.417Z,4.43
2022-11-15T20:18:52.141Z,6.57
2022-11-15T20:21:18.775Z,6.73
2022-11-15T20:23:45.361Z,4.90
2022-11-15T20:26:15.149Z,5.00
2022-11-15T20:28:43.936Z,5.60
2022-11-15T20:31:11.295Z,5.90
2022-11-15T20:33:37.781Z,4.07
2022-11-15T20:36:15.485Z,4.03
2022-11-15T20:38:42.227Z,4.20
2022-11-15T20:41:10.766Z,3.93
2022-11-15T20:43:37.247Z,4.63
2022-11-15T20:46:04.240Z,5.00
2022-11-15T20:48:31.326Z,4.70
2022-11-15T20:51:14.340Z,5.70
2022-11-15T20:53:42.307Z,6.33
2022-11-15T20:56:13.924Z,7.63
2022-11-15T20:58:40.718Z,8.17
2022-11-15T21:01:09.117Z,8.27
2022-11-15T21:03:36.460Z,8.43
2022-11-15T21:06:03.392Z,9.13
2022-11-15T21:08:50.487Z,9.60
2022-11-15T21:11:35.621Z,9.87
2022-11-15T21:14:06.311Z,9.97
2022-11-15T21:16:35.356Z,11.67
2022-11-15T21:19:01.803Z,11.83
2022-11-15T21:21:28.350Z,12.37
2022-11-15T21:23:54.800Z,12.60
2022-11-15T21:26:21.267Z,12.60
2022-11-15T21:28:47.773Z,11.57
2022-11-15T21:31:14.337Z,10.60
2022-11-15T21:33:40.779Z,9.70
2022-11-15T21:36:07.819Z,7.27
2022-11-15T21:38:34.514Z,7.40
2022-11-15T21:41:03.967Z,6.73
2022-11-15T21:43:30.602Z,9.23
2022-11-15T21:46:00.077Z,10.60
2022-11-15T21:48:27.842Z,17.60
2022-11-15T21:50:58.684Z,21.90
2022-11-15T21:53:26.293Z,18.63
2022-11-15T21:55:52.898Z,11.33
2022-11-15T21:58:20.341Z,9.87
2022-11-15T22:01:05.299Z,9.43
2022-11-15T22:03:31.867Z,8.50
2022-11-15T22:05:58.313Z,7.50
2022-11-15T22:08:25.562Z,7.67
2022-11-15T22:10:52.934Z,8.50
2022-11-15T22:13:19.546Z,7.83
2022-11-15T22:15:46.682Z,7.03
2022-11-15T22:18:14.156Z,4.47
2022-11-15T22:20:45.310Z,4.07
2022-11-15T22:23:12.106Z,4.40
2022-11-15T22:25:38.695Z,4.40
2022-11-15T22:28:05.354Z,5.57
2022-11-15T22:30:31.861Z,5.60
2022-11-15T22:32:58.327Z,5.67
2022-11-15T22:35:24.808Z,5.23
2022-11-15T22:37:52.689Z,4.77
2022-11-15T22:40:19.305Z,5.07
2022-11-15T22:42:45.942Z,4.43
2022-11-15T22:45:12.439Z,4.07
2022-11-15T22:47:38.930Z,4.00
2022-11-15T22:50:06.401Z,4.23
2022-11-15T22:52:32.935Z,3.90
2022-11-15T22:54:59.428Z,3.60
2022-11-15T22:57:25.940Z,3.17
2022-11-15T22:59:52.455Z,3.50
2022-11-15T23:02:18.985Z,3.63
2022-11-15T23:04:45.704Z,3.80
2022-11-15T23:07:12.285Z,3.83
2022-11-15T23:09:38.920Z,3.80
2022-11-15T23:12:27.395Z,3.40
2022-11-15T23:14:53.947Z,3.20
2022-11-15T23:17:20.458Z,3.53
2022-11-15T23:19:47.258Z,3.00
2022-11-15T23:22:32.088Z,3.33
2022-11-15T23:24:59.559Z,2.77
2022-11-15T23:27:26.122Z,2.97
2022-11-15T23:30:11.011Z,2.53
2022-11-15T23:32:56.160Z,2.67
2022-11-15T23:35:22.726Z,3.20
2022-11-15T23:37:49.206Z,2.87
2022-11-15T23:40:15.839Z,2.80
2022-11-15T23:42:42.351Z,2.40
2022-11-15T23:45:09.160Z,2.80
2022-11-15T23:47:35.687Z,2.33
2022-11-15T23:50:02.225Z,2.07
2022-11-15T23:52:28.688Z,2.27
2022-11-15T23:54:55.185Z,2.03
2022-11-15T23:57:21.665Z,2.17
2022-11-15T23:59:48.202Z,2.10
